Ireland West Airport Knock, Ireland

12:41 PM IST on October 23, 2014 (GMT +0100)
Charlestown | Change Station
CLOSE
Current Station
Personal Weather Station
Location: Charlestown, MAYO
Elevation: 233 ft
Nearby Weather Stations

Elev 233 ft 53.96 °N, 8.79 °W | Updated 5 seconds ago

Overcast
Overcast
57.7 °F
Feels Like 57.7 °F
N
10.7
Wind Variable Wind from SW
Gusts 21.3 mph

Today
High -- | Low -- °F
--% Chance of Precip.
Yesterday
High -- | Low -- °F
Precip. -- in
8:17 AM 6:20 PM
Waning Crescent, 0% visible
Pressure 29.80 in
Visibility 6.2 miles
Clouds Mostly Cloudy 500 ft
Mostly Cloudy 900 ft
Dew Point 53 °F
Humidity 84%
Rainfall 0.00 in
Snow Depth Not available.
UV 1 out of 12
Pollen Not available.
Air Quality Not available.
Flu Activity Not available.
METAR EIKN 231130Z 21014KT 190V250 9999 -DZ BKN005 BKN009 12/11 Q1009 NOSIG

More Conditions Fewer Conditions

Pressure 29.80 in
Visibility 6.2 miles
Clouds Mostly Cloudy 500 ft
Mostly Cloudy 900 ft
Dew Point 53 °F
Humidity 84%
Rainfall 0.00 in
Snow Depth Not available.
UV 1 out of 12
Pollen Not available.
Air Quality Not available.
Flu Activity Not available.
METAR EIKN 231130Z 21014KT 190V250 9999 -DZ BKN005 BKN009 12/11 Q1009 NOSIG

More Conditions Fewer Conditions

10-Day Weather Forecast

Almanac

Astronomy

Oct. 23, 2014 Rise Set
Actual Time 8:17 AM IST 6:20 PM IST
Civil Twilight 7:41 AM IST 6:56 PM IST
Nautical Twilight 7:00 AM IST 7:37 PM IST
Astronomical Twilight 6:19 AM IST 8:18 PM IST
Moon 7:39 AM IST 6:15 PM IST
Length of Visible Light 11h 15m
Length of Day
10h 02m
Tomorrow will be 4m 6s shorter.
Waning Crescent, 0% of the Moon is Illuminated
Today
Waning Crescent
Oct 23
New
Oct 30
First Quarter
Nov 6
Full
Nov 14
Last Quarter

Yesterday's Extremes

Country Highs Country Lows

Community

WunderPhotos

Upload Photos

1,764,209 photos uploaded!

Nearby

Snow Depth

Not available.

Earthquake Activity

City Distance Mag. Time & Date
No recent earthquake activity has been reported nearby.
Minimum magnitude displayed is 2.5.

Coastal Water Temperatures

Place Temperature
No Stations Reporting

Nearby Weather Stations